createdAt,value
2022-10-19T00:01:28.838Z,101096.64
2022-10-19T00:03:57.326Z,101099.42
2022-10-19T00:06:29.274Z,101097.61
2022-10-19T00:09:04.750Z,101101.52
2022-10-19T00:11:37.630Z,101100.45
2022-10-19T00:14:08.056Z,101104.19
2022-10-19T00:16:38.443Z,101104.20
2022-10-19T00:19:12.385Z,101104.30
2022-10-19T00:21:43.354Z,101105.07
2022-10-19T00:24:11.668Z,101109.79
2022-10-19T00:26:40.073Z,101108.08
2022-10-19T00:29:08.690Z,101102.92
2022-10-19T00:31:36.870Z,101110.50
2022-10-19T00:34:05.082Z,101097.60
2022-10-19T00:36:36.273Z,101106.35
2022-10-19T00:39:05.995Z,101102.91
2022-10-19T00:41:36.224Z,101098.78
2022-10-19T00:44:11.781Z,101098.33
2022-10-19T00:46:43.715Z,101100.59
2022-10-19T00:49:25.048Z,101099.65
2022-10-19T00:52:03.000Z,101103.31
2022-10-19T00:54:33.664Z,101101.56
2022-10-19T00:57:03.426Z,101094.73
2022-10-19T00:59:32.857Z,101090.45
2022-10-19T01:02:03.697Z,101085.82
2022-10-19T01:04:35.146Z,101082.35
2022-10-19T01:07:05.355Z,101081.69
2022-10-19T01:09:33.878Z,101079.09
2022-10-19T01:12:21.833Z,101079.83
2022-10-19T01:15:11.687Z,101078.92
2022-10-19T01:18:12.082Z,101082.79
2022-10-19T01:21:04.728Z,101084.30
2022-10-19T01:23:44.683Z,101081.77
2022-10-19T01:26:38.365Z,101084.79
2022-10-19T01:29:48.078Z,101079.05
2022-10-19T01:32:55.326Z,101081.45
2022-10-19T01:35:34.851Z,101078.02
2022-10-19T01:38:09.225Z,101077.84
2022-10-19T01:41:11.311Z,101073.92
2022-10-19T01:43:55.469Z,101070.34
2022-10-19T01:46:32.402Z,101072.21
2022-10-19T01:49:09.990Z,101070.90
2022-10-19T01:51:43.968Z,101067.21
2022-10-19T01:54:16.371Z,101068.34
2022-10-19T01:56:47.712Z,101065.54
2022-10-19T01:59:26.459Z,101066.47
2022-10-19T02:01:58.277Z,101062.43
2022-10-19T02:04:27.277Z,101066.77
2022-10-19T02:06:55.988Z,101069.00
2022-10-19T02:09:24.098Z,101067.48
2022-10-19T02:11:57.618Z,101068.67
2022-10-19T02:14:37.946Z,101069.92
2022-10-19T02:17:10.201Z,101067.51
2022-10-19T02:19:38.343Z,101066.21
2022-10-19T02:22:07.820Z,101063.33
2022-10-19T02:24:35.933Z,101061.63
2022-10-19T02:27:06.647Z,101061.87
2022-10-19T02:29:37.072Z,101059.08
2022-10-19T02:32:09.236Z,101060.73
2022-10-19T02:34:39.655Z,101059.98
2022-10-19T02:37:07.858Z,101060.25
2022-10-19T02:39:36.119Z,101062.15
2022-10-19T02:42:12.164Z,101062.08
2022-10-19T02:45:02.644Z,101060.94
2022-10-19T02:47:54.186Z,101066.58
2022-10-19T02:50:23.534Z,101067.16
2022-10-19T02:52:51.834Z,101059.32
2022-10-19T02:55:19.986Z,101058.55
2022-10-19T02:57:47.877Z,101057.98
2022-10-19T03:00:16.098Z,101055.60
2022-10-19T03:02:44.892Z,101054.95
2022-10-19T03:05:12.947Z,101057.66
2022-10-19T03:07:42.412Z,101058.85
2022-10-19T03:10:10.373Z,101060.08
2022-10-19T03:12:38.353Z,101065.05
2022-10-19T03:15:06.931Z,101072.11
2022-10-19T03:17:35.973Z,101068.30
2022-10-19T03:20:07.713Z,101061.21
2022-10-19T03:22:35.759Z,101060.08
2022-10-19T03:25:04.128Z,101063.65
2022-10-19T03:27:32.648Z,101054.65
2022-10-19T03:30:04.366Z,101059.50
2022-10-19T03:32:32.376Z,101057.19
2022-10-19T03:35:00.344Z,101053.39
2022-10-19T03:37:28.351Z,101053.53
2022-10-19T03:39:56.286Z,101062.33
2022-10-19T03:42:24.526Z,101061.50
2022-10-19T03:44:52.597Z,101059.55
2022-10-19T03:47:20.656Z,101059.45
2022-10-19T03:49:50.377Z,101060.81
2022-10-19T03:52:19.770Z,101066.95
2022-10-19T03:54:51.281Z,101060.39
2022-10-19T03:57:19.399Z,101061.27
2022-10-19T03:59:47.378Z,101059.30
2022-10-19T04:02:15.461Z,101055.76
2022-10-19T04:04:44.518Z,101052.63
2022-10-19T04:07:12.603Z,101056.89
2022-10-19T04:09:40.680Z,101056.01
2022-10-19T04:12:08.853Z,101058.73
2022-10-19T04:14:52.423Z,101062.92
2022-10-19T04:17:24.656Z,101064.94
2022-10-19T04:19:52.729Z,101069.54
2022-10-19T04:22:20.699Z,101067.08
2022-10-19T04:24:48.712Z,101074.13
2022-10-19T04:27:16.774Z,101071.37
2022-10-19T04:29:44.832Z,101070.38
2022-10-19T04:32:12.842Z,101070.54
2022-10-19T04:34:41.030Z,101077.80
2022-10-19T04:37:09.770Z,101064.05
2022-10-19T04:39:41.192Z,101079.42
2022-10-19T04:42:09.283Z,101086.05
2022-10-19T04:44:37.687Z,101086.80
2022-10-19T04:47:05.875Z,101084.41
2022-10-19T04:49:34.026Z,101079.80
2022-10-19T04:52:02.624Z,101083.23
2022-10-19T04:54:30.931Z,101079.77
2022-10-19T04:56:59.308Z,101070.39
2022-10-19T04:59:30.481Z,101072.23
2022-10-19T05:01:59.248Z,101073.94
2022-10-19T05:04:29.084Z,101072.73
2022-10-19T05:06:57.376Z,101074.34
2022-10-19T05:09:25.512Z,101080.74
2022-10-19T05:11:53.618Z,101078.52
2022-10-19T05:14:21.921Z,101077.66
2022-10-19T05:16:50.275Z,101073.02
2022-10-19T05:19:18.604Z,101078.09
2022-10-19T05:21:46.970Z,101073.34
2022-10-19T05:24:14.974Z,101084.65
2022-10-19T05:26:43.080Z,101082.98
2022-10-19T05:29:13.385Z,101085.41
2022-10-19T05:31:42.040Z,101085.84
2022-10-19T05:34:10.153Z,101086.32
2022-10-19T05:36:39.725Z,101088.92
2022-10-19T05:39:17.033Z,101085.59
2022-10-19T05:41:47.691Z,101089.39
2022-10-19T05:44:22.037Z,101090.84
2022-10-19T05:46:51.852Z,101090.02
2022-10-19T05:49:21.632Z,101092.23
2022-10-19T05:51:50.432Z,101098.47
2022-10-19T05:54:20.367Z,101097.83
2022-10-19T05:56:50.509Z,101096.42
2022-10-19T05:59:20.494Z,101099.02
2022-10-19T06:01:50.261Z,101099.52
2022-10-19T06:04:20.214Z,101105.38
2022-10-19T06:06:48.554Z,101109.09
2022-10-19T06:09:16.999Z,101115.04
2022-10-19T06:11:45.703Z,101113.94
2022-10-19T06:14:16.402Z,101114.82
2022-10-19T06:16:46.331Z,101116.15
2022-10-19T06:19:15.188Z,101117.09
2022-10-19T06:21:46.167Z,101116.79
2022-10-19T06:24:15.988Z,101114.08
2022-10-19T06:26:44.266Z,101116.38
2022-10-19T06:29:12.725Z,101121.40
2022-10-19T06:31:41.244Z,101122.14
2022-10-19T06:34:09.484Z,101118.73
2022-10-19T06:36:38.567Z,101120.58
2022-10-19T06:39:07.864Z,101126.77
2022-10-19T06:41:37.219Z,101132.08
2022-10-19T06:44:21.058Z,101139.63
2022-10-19T06:46:51.312Z,101137.02
2022-10-19T06:49:22.643Z,101136.11
2022-10-19T06:51:54.006Z,101136.88
2022-10-19T06:54:25.619Z,101139.70
2022-10-19T06:56:55.422Z,101142.16
2022-10-19T06:59:26.650Z,101141.09
2022-10-19T07:01:55.328Z,101142.14
2022-10-19T07:04:26.647Z,101141.62
2022-10-19T07:06:56.984Z,101148.00
2022-10-19T07:09:25.480Z,101152.07
2022-10-19T07:11:54.229Z,101151.10
2022-10-19T07:14:28.861Z,101150.77
2022-10-19T07:16:58.207Z,101134.94
2022-10-19T07:19:26.975Z,101151.45
2022-10-19T07:21:55.327Z,101153.84
2022-10-19T07:24:23.643Z,101158.52
2022-10-19T07:26:52.284Z,101166.52
2022-10-19T07:29:20.705Z,101168.26
2022-10-19T07:31:49.151Z,101171.29
2022-10-19T07:34:17.715Z,101170.70
2022-10-19T07:36:48.535Z,101171.11
2022-10-19T07:39:17.671Z,101173.86
2022-10-19T07:41:46.777Z,101173.77
2022-10-19T07:44:16.295Z,101177.43
2022-10-19T07:46:45.179Z,101176.98
2022-10-19T07:49:16.658Z,101176.89
2022-10-19T07:51:46.488Z,101181.39
2022-10-19T07:54:15.483Z,101182.05
2022-10-19T07:56:44.058Z,101180.96
2022-10-19T07:59:14.557Z,101180.52
2022-10-19T08:01:44.139Z,101182.65
2022-10-19T08:04:55.571Z,101179.30
2022-10-19T08:07:02.051Z,101183.52
2022-10-19T08:09:52.086Z,101179.90
2022-10-19T08:12:20.724Z,101185.33
2022-10-19T08:14:50.403Z,101189.48
2022-10-19T08:17:20.021Z,101195.78
2022-10-19T08:19:48.749Z,101189.34
2022-10-19T08:22:17.579Z,101190.98
2022-10-19T08:24:46.232Z,101189.61
2022-10-19T08:27:15.476Z,101188.82
2022-10-19T08:29:44.160Z,101185.52
2022-10-19T08:32:16.193Z,101187.10
2022-10-19T08:34:45.499Z,101187.36
2022-10-19T08:37:25.859Z,101184.65
2022-10-19T08:40:02.798Z,101185.04
2022-10-19T08:42:49.921Z,101188.81
2022-10-19T08:45:22.497Z,101186.98
2022-10-19T08:47:57.418Z,101184.71
2022-10-19T08:50:35.361Z,101184.81
2022-10-19T08:53:19.548Z,101182.73
2022-10-19T08:55:50.934Z,101189.37
2022-10-19T08:58:31.757Z,101189.89
2022-10-19T09:01:14.228Z,101188.09
2022-10-19T09:04:21.937Z,101185.29
2022-10-19T09:07:31.396Z,101187.56
2022-10-19T09:10:15.900Z,101184.09
2022-10-19T09:13:00.692Z,101183.70
2022-10-19T09:15:38.982Z,101188.13
2022-10-19T09:18:28.529Z,101187.73
2022-10-19T09:21:46.112Z,101188.39
2022-10-19T09:24:47.947Z,101194.34
2022-10-19T09:27:26.113Z,101193.30
2022-10-19T09:29:56.412Z,101200.98
2022-10-19T09:32:31.722Z,101205.64
2022-10-19T09:35:03.530Z,101205.34
2022-10-19T09:37:37.033Z,101207.02
2022-10-19T09:40:06.693Z,101201.29
2022-10-19T09:42:37.047Z,101212.92
2022-10-19T09:45:17.752Z,101212.09
2022-10-19T09:47:49.116Z,101213.08
2022-10-19T09:50:24.216Z,101212.11
2022-10-19T09:52:56.771Z,101215.13
2022-10-19T09:55:44.390Z,101216.34
2022-10-19T09:58:15.620Z,101222.06
2022-10-19T10:00:47.405Z,101227.05
2022-10-19T10:03:43.828Z,101230.05
2022-10-19T10:06:17.466Z,101227.02
2022-10-19T10:08:51.113Z,101225.32
2022-10-19T10:11:30.348Z,101228.34
2022-10-19T10:14:07.513Z,101230.15
2022-10-19T10:16:38.386Z,101226.02
2022-10-19T10:19:09.203Z,101221.89
2022-10-19T10:21:48.516Z,101218.95
2022-10-19T10:24:25.469Z,101221.64
2022-10-19T10:26:57.062Z,101221.45
2022-10-19T10:29:30.266Z,101216.60
2022-10-19T10:32:20.359Z,101218.54
2022-10-19T10:34:52.798Z,101218.50
2022-10-19T10:37:35.081Z,101212.84
2022-10-19T10:40:06.054Z,101209.84
2022-10-19T10:42:43.756Z,101211.95
2022-10-19T10:45:23.427Z,101210.98
2022-10-19T10:47:52.714Z,101208.98
2022-10-19T10:50:35.020Z,101208.77
2022-10-19T10:53:06.541Z,101207.50
2022-10-19T10:55:34.846Z,101210.84
2022-10-19T10:58:15.633Z,101205.98
2022-10-19T11:00:45.532Z,101201.36
2022-10-19T11:03:24.080Z,101207.81
2022-10-19T11:05:57.729Z,101206.59
2022-10-19T11:08:41.387Z,101207.56
2022-10-19T11:11:24.718Z,101211.33
2022-10-19T11:14:19.108Z,101202.89
2022-10-19T11:16:52.999Z,101197.25
2022-10-19T11:19:27.670Z,101196.99
2022-10-19T11:22:23.658Z,101196.38
2022-10-19T11:25:18.649Z,101199.80
2022-10-19T11:27:58.984Z,101201.20
2022-10-19T11:30:28.091Z,101205.36
2022-10-19T11:33:07.147Z,101207.31
2022-10-19T11:35:54.427Z,101207.97
2022-10-19T11:38:41.629Z,101209.05
2022-10-19T11:41:17.761Z,101213.65
2022-10-19T11:44:05.182Z,101215.06
2022-10-19T11:46:42.997Z,101207.99
2022-10-19T11:49:22.202Z,101208.35
2022-10-19T11:51:59.423Z,101208.25
2022-10-19T11:54:41.816Z,101211.56
2022-10-19T11:57:30.074Z,101212.70
2022-10-19T12:00:04.064Z,101211.95
2022-10-19T12:02:45.108Z,101208.24
2022-10-19T12:05:22.541Z,101212.27
2022-10-19T12:08:05.036Z,101216.41
2022-10-19T12:10:42.179Z,101208.00
2022-10-19T12:13:14.614Z,101212.16
2022-10-19T12:15:55.795Z,101211.16
2022-10-19T12:18:23.903Z,101210.64
2022-10-19T12:20:57.221Z,101213.95
2022-10-19T12:23:31.361Z,101211.39
2022-10-19T12:26:03.873Z,101210.73
2022-10-19T12:28:35.500Z,101210.45
2022-10-19T12:31:05.770Z,101215.21
2022-10-19T12:33:36.854Z,101217.00
2022-10-19T12:36:22.668Z,101216.27
2022-10-19T12:38:59.652Z,101211.45
2022-10-19T12:41:45.824Z,101207.84
2022-10-19T12:44:47.692Z,101211.48
2022-10-19T12:47:19.390Z,101211.18
2022-10-19T12:49:58.189Z,101208.63
2022-10-19T12:52:52.951Z,101210.71
2022-10-19T12:55:35.027Z,101210.73
2022-10-19T12:58:22.245Z,101214.71
2022-10-19T13:01:04.062Z,101211.93
2022-10-19T13:03:42.245Z,101214.10
2022-10-19T13:06:16.146Z,101212.86
2022-10-19T13:08:53.962Z,101217.91
2022-10-19T13:11:22.705Z,101215.92
2022-10-19T13:14:25.701Z,101212.59
2022-10-19T13:16:58.732Z,101213.96
2022-10-19T13:19:28.650Z,101213.25
2022-10-19T13:22:02.686Z,101213.02
2022-10-19T13:24:35.062Z,101220.41
2022-10-19T13:27:03.654Z,101217.98
2022-10-19T13:29:38.460Z,101220.82
2022-10-19T13:32:43.572Z,101219.02
2022-10-19T13:35:26.813Z,101221.55
2022-10-19T13:38:17.049Z,101219.65
2022-10-19T13:40:48.056Z,101223.63
2022-10-19T13:43:41.178Z,101223.08
2022-10-19T13:46:12.822Z,101223.80
2022-10-19T13:49:04.526Z,101221.65
2022-10-19T13:51:51.448Z,101221.40
2022-10-19T13:54:47.012Z,101222.17
2022-10-19T13:57:37.614Z,101219.14
2022-10-19T14:00:18.422Z,101218.19
2022-10-19T14:03:08.009Z,101217.42
2022-10-19T14:06:04.175Z,101214.06
2022-10-19T14:08:56.753Z,101210.81
2022-10-19T14:11:35.460Z,101199.27
2022-10-19T14:14:25.218Z,101197.20
2022-10-19T14:16:58.247Z,101195.55
2022-10-19T14:19:33.062Z,101190.46
2022-10-19T14:22:23.666Z,101186.20
2022-10-19T14:24:52.335Z,101179.73
2022-10-19T14:27:24.977Z,101180.38
2022-10-19T14:29:54.439Z,101175.85
2022-10-19T14:32:27.673Z,101175.60
2022-10-19T14:41:37.785Z,101184.15
2022-10-19T14:44:43.190Z,101183.14
2022-10-19T14:47:21.855Z,101189.42
2022-10-19T14:49:51.538Z,101183.89
2022-10-19T14:52:30.391Z,101189.62
2022-10-19T14:55:00.466Z,101195.30
2022-10-19T14:57:35.121Z,101186.42
2022-10-19T15:00:15.252Z,101197.46
2022-10-19T15:02:48.703Z,101194.78
2022-10-19T15:05:24.499Z,101188.48
2022-10-19T15:07:55.255Z,101199.30
2022-10-19T15:10:44.982Z,101195.14
2022-10-19T15:13:42.204Z,101194.27
2022-10-19T15:16:32.070Z,101193.64
2022-10-19T15:19:24.928Z,101197.22
2022-10-19T15:22:21.821Z,101192.45
2022-10-19T15:25:02.504Z,101189.84
2022-10-19T15:27:48.069Z,101188.73
2022-10-19T15:30:22.249Z,101191.85
2022-10-19T15:32:55.648Z,101190.77
2022-10-19T15:35:30.241Z,101189.24
2022-10-19T15:38:06.661Z,101187.61
2022-10-19T15:40:39.154Z,101191.77
2022-10-19T15:43:37.115Z,101181.48
2022-10-19T15:46:20.034Z,101180.55
2022-10-19T15:48:58.437Z,101181.91
2022-10-19T15:51:27.367Z,101186.94
2022-10-19T15:54:02.558Z,101187.43
2022-10-19T15:56:36.042Z,101189.66
2022-10-19T15:59:20.574Z,101188.88
2022-10-19T16:01:52.580Z,101190.52
2022-10-19T16:04:22.852Z,101195.15
2022-10-19T16:06:51.124Z,101195.31
2022-10-19T16:09:21.945Z,101192.69
2022-10-19T16:11:56.735Z,101191.40
2022-10-19T16:14:27.018Z,101191.14
2022-10-19T16:16:56.037Z,101189.66
2022-10-19T16:19:24.698Z,101197.90
2022-10-19T16:21:53.658Z,101201.19
2022-10-19T16:24:22.105Z,101203.72
2022-10-19T16:26:50.780Z,101211.86
2022-10-19T16:29:19.108Z,101214.59
2022-10-19T16:31:47.391Z,101215.19
2022-10-19T16:34:15.904Z,101214.77
2022-10-19T16:36:45.896Z,101223.44
2022-10-19T16:39:15.621Z,101223.39
2022-10-19T16:41:44.594Z,101227.34
2022-10-19T16:44:23.319Z,101229.79
2022-10-19T16:47:00.154Z,101226.75
2022-10-19T16:49:30.042Z,101227.11
2022-10-19T16:52:02.168Z,101232.91
2022-10-19T16:54:33.506Z,101231.41
2022-10-19T16:57:08.638Z,101232.16
2022-10-19T16:59:39.534Z,101229.42
2022-10-19T17:02:11.412Z,101233.55
2022-10-19T17:04:41.740Z,101235.89
2022-10-19T17:07:18.991Z,101237.15
2022-10-19T17:10:00.294Z,101241.91
2022-10-19T17:12:31.781Z,101242.59
2022-10-19T17:15:29.937Z,101247.63
2022-10-19T17:17:48.679Z,101252.32
2022-10-19T17:20:18.118Z,101253.23
2022-10-19T17:22:48.158Z,101255.82
2022-10-19T17:25:17.160Z,101251.99
2022-10-19T17:27:47.967Z,101265.90
2022-10-19T17:30:21.963Z,101268.33
2022-10-19T17:32:54.614Z,101271.76
2022-10-19T17:35:23.070Z,101278.17
2022-10-19T17:37:52.179Z,101279.45
2022-10-19T17:40:22.835Z,101283.20
2022-10-19T17:42:52.898Z,101287.58
2022-10-19T17:45:23.065Z,101294.02
2022-10-19T17:47:51.623Z,101296.85
2022-10-19T17:50:21.836Z,101303.61
2022-10-19T17:52:53.068Z,101300.74
2022-10-19T17:55:27.355Z,101298.68
2022-10-19T17:57:57.561Z,101304.98
2022-10-19T18:00:27.333Z,101299.11
2022-10-19T18:02:57.145Z,101309.02
2022-10-19T18:05:26.504Z,101305.02
2022-10-19T18:08:02.242Z,101308.55
2022-10-19T18:10:36.401Z,101311.27
2022-10-19T18:13:07.166Z,101310.36
2022-10-19T18:15:35.910Z,101315.54
2022-10-19T18:18:04.673Z,101317.14
2022-10-19T18:20:34.287Z,101322.21
2022-10-19T18:23:05.875Z,101319.85
2022-10-19T18:25:53.545Z,101317.48
2022-10-19T18:28:22.936Z,101318.67
2022-10-19T18:30:51.838Z,101324.66
2022-10-19T18:33:20.291Z,101324.82
2022-10-19T18:35:49.009Z,101321.26
2022-10-19T18:38:28.895Z,101318.17
2022-10-19T18:43:54.030Z,101318.72
2022-10-19T18:46:26.914Z,101318.52
2022-10-19T18:49:03.128Z,101320.29
2022-10-19T18:51:33.718Z,101322.86
2022-10-19T18:54:05.269Z,101322.30
2022-10-19T18:56:38.320Z,101318.31
2022-10-19T18:59:16.389Z,101317.08
2022-10-19T19:01:45.881Z,101318.73
2022-10-19T19:04:15.549Z,101319.27
2022-10-19T19:06:47.951Z,101320.88
2022-10-19T19:09:19.481Z,101324.45
2022-10-19T19:11:48.592Z,101323.52
2022-10-19T19:14:21.209Z,101320.92
2022-10-19T19:16:52.659Z,101322.03
2022-10-19T19:19:24.700Z,101325.42
2022-10-19T19:21:58.336Z,101327.93
2022-10-19T19:24:32.252Z,101328.98
2022-10-19T19:27:01.463Z,101332.66
2022-10-19T19:29:31.406Z,101335.83
2022-10-19T19:32:00.175Z,101335.30
2022-10-19T19:34:29.622Z,101335.82
2022-10-19T19:37:00.881Z,101331.09
2022-10-19T19:39:31.851Z,101338.89
2022-10-19T19:42:01.937Z,101338.38
2022-10-19T19:44:32.431Z,101340.71
2022-10-19T19:47:03.109Z,101340.23
2022-10-19T19:49:33.496Z,101339.74
2022-10-19T19:52:05.364Z,101343.35
2022-10-19T19:54:34.454Z,101342.61
2022-10-19T19:57:03.276Z,101342.19
2022-10-19T19:59:33.371Z,101340.16
2022-10-19T20:02:02.629Z,101343.86
2022-10-19T20:04:35.031Z,101348.23
2022-10-19T20:07:05.961Z,101351.63
2022-10-19T20:09:35.832Z,101350.77
2022-10-19T20:12:05.573Z,101345.83
2022-10-19T20:14:34.163Z,101348.71
2022-10-19T20:17:02.686Z,101351.98
2022-10-19T20:19:31.427Z,101355.31
2022-10-19T20:22:00.483Z,101351.31
2022-10-19T20:24:29.287Z,101346.27
2022-10-19T20:26:58.502Z,101346.52
2022-10-19T20:29:27.065Z,101348.60
2022-10-19T20:31:55.580Z,101349.20
2022-10-19T20:34:27.198Z,101349.52
2022-10-19T20:36:56.711Z,101352.04
2022-10-19T20:39:25.674Z,101352.52
2022-10-19T20:41:55.183Z,101353.15
2022-10-19T20:44:24.371Z,101350.00
2022-10-19T20:46:53.514Z,101354.05
2022-10-19T20:49:24.802Z,101353.08
2022-10-19T20:51:55.719Z,101355.46
2022-10-19T20:54:29.274Z,101353.60
2022-10-19T20:57:01.825Z,101346.75
2022-10-19T20:59:35.440Z,101356.27
2022-10-19T21:02:06.685Z,101362.80
2022-10-19T21:04:35.156Z,101360.98
2022-10-19T21:07:05.162Z,101361.77
2022-10-19T21:09:33.944Z,101358.59
2022-10-19T21:12:02.313Z,101362.42
2022-10-19T21:14:30.830Z,101362.59
2022-10-19T21:17:00.368Z,101364.39
2022-10-19T21:19:29.989Z,101366.40
2022-10-19T21:22:02.351Z,101367.13
2022-10-19T21:24:36.561Z,101369.59
2022-10-19T21:27:09.387Z,101371.83
2022-10-19T21:29:42.189Z,101369.88
2022-10-19T21:32:10.705Z,101362.42
2022-10-19T21:34:39.141Z,101374.31
2022-10-19T21:37:08.401Z,101373.25
2022-10-19T21:39:37.305Z,101374.88
2022-10-19T21:42:09.175Z,101376.44
2022-10-19T21:44:38.537Z,101380.37
2022-10-19T21:47:08.071Z,101381.80
2022-10-19T21:49:36.287Z,101384.14
2022-10-19T21:52:04.672Z,101383.04
2022-10-19T21:54:33.146Z,101386.95
2022-10-19T21:57:02.961Z,101384.90
2022-10-19T21:59:31.227Z,101380.14
2022-10-19T22:01:59.895Z,101383.05
2022-10-19T22:05:08.515Z,101378.70
2022-10-19T22:07:37.326Z,101380.09
2022-10-19T22:10:06.851Z,101386.41
2022-10-19T22:12:38.256Z,101385.37
2022-10-19T22:15:07.806Z,101382.58
2022-10-19T22:17:36.038Z,101384.36
2022-10-19T22:20:04.868Z,101385.58
2022-10-19T22:22:33.468Z,101387.61
2022-10-19T22:25:02.130Z,101386.20
2022-10-19T22:27:30.534Z,101389.52
2022-10-19T22:29:58.667Z,101389.48
2022-10-19T22:32:26.733Z,101390.28
2022-10-19T22:34:54.704Z,101387.66
2022-10-19T22:37:22.770Z,101395.16
2022-10-19T22:39:50.803Z,101389.21
2022-10-19T22:42:18.792Z,101393.63
2022-10-19T22:44:46.786Z,101396.39
2022-10-19T22:47:14.775Z,101398.76
2022-10-19T22:49:42.724Z,101396.27
2022-10-19T22:52:11.576Z,101397.41
2022-10-19T22:54:39.704Z,101396.44
2022-10-19T22:57:08.298Z,101401.91
2022-10-19T22:59:36.310Z,101400.04
2022-10-19T23:02:04.779Z,101397.60
2022-10-19T23:04:32.956Z,101395.33
2022-10-19T23:07:01.155Z,101397.84
2022-10-19T23:09:29.199Z,101396.60
2022-10-19T23:11:57.217Z,101393.89
2022-10-19T23:14:25.402Z,101390.90
2022-10-19T23:16:53.378Z,101389.81
2022-10-19T23:19:21.454Z,101389.95
2022-10-19T23:21:49.594Z,101392.48
2022-10-19T23:24:20.676Z,101391.73
2022-10-19T23:26:48.829Z,101392.98
2022-10-19T23:29:16.883Z,101395.33
2022-10-19T23:31:44.891Z,101397.04
2022-10-19T23:34:15.506Z,101397.27
2022-10-19T23:36:43.658Z,101396.59
2022-10-19T23:39:11.847Z,101391.83
2022-10-19T23:41:39.904Z,101394.83
2022-10-19T23:44:09.807Z,101391.27
2022-10-19T23:46:40.852Z,101385.50
2022-10-19T23:49:08.934Z,101381.54
2022-10-19T23:51:37.794Z,101389.33
2022-10-19T23:54:06.061Z,101384.11
2022-10-19T23:56:34.222Z,101383.63
2022-10-19T23:59:02.386Z,101383.63
